createdAt,value
2023-05-05T00:02:01.684Z,68.45
2023-05-05T00:04:28.169Z,67.72
2023-05-05T00:06:54.473Z,66.86
2023-05-05T00:09:21.448Z,67.30
2023-05-05T00:11:47.761Z,67.27
2023-05-05T00:14:14.219Z,66.81
2023-05-05T00:16:40.575Z,66.86
2023-05-05T00:19:06.941Z,67.45
2023-05-05T00:21:33.246Z,67.89
2023-05-05T00:23:59.548Z,67.07
2023-05-05T00:26:25.868Z,66.92
2023-05-05T00:28:52.172Z,65.90
2023-05-05T00:31:18.507Z,66.05
2023-05-05T00:33:44.847Z,65.84
2023-05-05T00:36:11.155Z,65.51
2023-05-05T00:38:37.547Z,65.56
2023-05-05T00:41:03.967Z,65.16
2023-05-05T00:43:30.322Z,64.63
2023-05-05T00:46:09.559Z,64.36
2023-05-05T00:48:36.145Z,65.03
2023-05-05T00:51:02.464Z,64.79
2023-05-05T00:53:28.895Z,64.56
2023-05-05T00:55:55.254Z,65.10
2023-05-05T00:58:21.690Z,65.08
2023-05-05T01:00:48.002Z,63.28
2023-05-05T01:03:14.369Z,63.69
2023-05-05T01:06:11.714Z,63.96
2023-05-05T01:08:43.880Z,63.54
2023-05-05T01:11:23.891Z,64.08
2023-05-05T01:14:05.900Z,63.83
2023-05-05T01:16:34.197Z,63.80
2023-05-05T01:19:14.434Z,64.15
2023-05-05T01:21:53.263Z,64.38
2023-05-05T01:24:31.712Z,64.95
2023-05-05T01:27:19.838Z,64.20
2023-05-05T01:30:30.541Z,64.61
2023-05-05T01:33:03.749Z,64.17
2023-05-05T01:35:41.164Z,63.72
2023-05-05T01:38:24.808Z,64.17
2023-05-05T01:41:03.571Z,64.15
2023-05-05T01:43:35.444Z,64.11
2023-05-05T01:46:03.510Z,62.97
2023-05-05T01:48:30.881Z,62.23
2023-05-05T01:50:58.655Z,61.83
2023-05-05T01:53:27.081Z,61.74
2023-05-05T01:55:55.352Z,62.03
2023-05-05T01:58:23.332Z,62.25
2023-05-05T02:00:51.246Z,61.52
2023-05-05T02:03:19.597Z,61.69
2023-05-05T02:05:47.457Z,61.86
2023-05-05T02:08:15.571Z,62.05
2023-05-05T02:10:43.220Z,61.66
2023-05-05T02:13:11.787Z,62.37
2023-05-05T02:15:39.295Z,61.54
2023-05-05T02:18:06.736Z,61.48
2023-05-05T02:20:33.972Z,62.12
2023-05-05T02:23:00.332Z,62.93
2023-05-05T02:25:35.309Z,62.75
2023-05-05T02:28:03.648Z,61.67
2023-05-05T02:30:34.672Z,62.09
2023-05-05T02:33:07.001Z,62.20
2023-05-05T02:35:38.785Z,62.83
2023-05-05T02:38:09.471Z,62.90
2023-05-05T02:40:36.901Z,62.86
2023-05-05T02:43:09.738Z,63.65
2023-05-05T02:45:36.219Z,63.61
2023-05-05T02:48:03.600Z,63.37
2023-05-05T02:50:31.305Z,63.28
2023-05-05T02:53:01.063Z,63.27
2023-05-05T02:55:37.442Z,63.32
2023-05-05T02:58:09.247Z,63.67
2023-05-05T03:00:57.608Z,64.05
2023-05-05T03:03:38.469Z,65.08
2023-05-05T03:06:17.488Z,64.35
2023-05-05T03:09:09.633Z,64.13
2023-05-05T03:11:40.317Z,63.66
2023-05-05T03:14:12.783Z,62.50
2023-05-05T03:16:41.734Z,62.66
2023-05-05T03:19:11.107Z,63.45
2023-05-05T03:21:38.981Z,63.03
2023-05-05T03:24:15.718Z,63.10
2023-05-05T03:26:43.277Z,62.46
2023-05-05T03:29:09.933Z,62.29
2023-05-05T03:31:36.492Z,62.90
2023-05-05T03:34:03.295Z,61.90
2023-05-05T03:36:30.004Z,62.11
2023-05-05T03:38:56.464Z,62.78
2023-05-05T03:41:22.795Z,63.06
2023-05-05T03:43:49.348Z,62.62
2023-05-05T03:46:15.904Z,63.07
2023-05-05T03:48:42.913Z,63.40
2023-05-05T03:51:09.468Z,62.57
2023-05-05T03:53:36.012Z,62.30
2023-05-05T03:56:02.375Z,62.12
2023-05-05T03:58:28.709Z,62.88
2023-05-05T04:00:55.005Z,61.92
2023-05-05T04:03:21.487Z,61.21
2023-05-05T04:05:47.953Z,61.53
2023-05-05T04:08:14.286Z,60.78
2023-05-05T04:10:40.603Z,60.70
2023-05-05T04:13:06.965Z,60.72
2023-05-05T04:15:33.270Z,61.00
2023-05-05T04:17:59.625Z,61.20
2023-05-05T04:20:26.092Z,61.81
2023-05-05T04:22:52.857Z,61.26
2023-05-05T04:25:19.227Z,61.72
2023-05-05T04:27:45.541Z,62.51
2023-05-05T04:30:12.036Z,62.84
2023-05-05T04:32:38.402Z,63.16
2023-05-05T04:35:05.112Z,63.18
2023-05-05T04:37:31.439Z,62.99
2023-05-05T04:39:57.735Z,63.00
2023-05-05T04:42:24.083Z,62.45
2023-05-05T04:44:50.427Z,63.11
2023-05-05T04:47:16.890Z,62.54
2023-05-05T04:49:43.178Z,62.94
2023-05-05T04:52:12.088Z,61.63
2023-05-05T04:54:38.389Z,61.30
2023-05-05T04:57:04.753Z,60.78
2023-05-05T04:59:31.104Z,59.68
2023-05-05T05:01:57.430Z,59.32
2023-05-05T05:04:23.886Z,58.99
2023-05-05T05:06:50.171Z,60.70
2023-05-05T05:09:16.477Z,60.50
2023-05-05T05:11:42.778Z,60.54
2023-05-05T05:14:09.179Z,60.61
2023-05-05T05:16:35.533Z,60.82
2023-05-05T05:19:02.067Z,59.91
2023-05-05T05:21:28.410Z,60.11
2023-05-05T05:23:54.732Z,59.64
2023-05-05T05:26:21.083Z,58.96
2023-05-05T05:28:47.407Z,58.52
2023-05-05T05:31:13.788Z,56.29
2023-05-05T05:33:40.089Z,54.28
2023-05-05T05:36:06.478Z,54.73
2023-05-05T05:38:32.773Z,55.54
2023-05-05T05:40:59.133Z,56.52
2023-05-05T05:43:25.537Z,58.37
2023-05-05T05:45:51.985Z,59.95
2023-05-05T05:48:18.369Z,61.48
2023-05-05T05:50:44.652Z,64.21
2023-05-05T05:53:10.972Z,65.71
2023-05-05T05:55:37.266Z,67.11
2023-05-05T05:58:03.587Z,68.43
2023-05-05T06:00:29.969Z,69.73
2023-05-05T06:02:56.383Z,73.71
2023-05-05T06:05:22.739Z,73.96
2023-05-05T06:07:49.043Z,73.72
2023-05-05T06:10:27.528Z,71.76
2023-05-05T06:12:54.575Z,70.17
2023-05-05T06:15:20.913Z,72.37
2023-05-05T06:17:47.227Z,71.45
2023-05-05T06:20:13.555Z,69.81
2023-05-05T06:22:39.862Z,70.62
2023-05-05T06:25:06.727Z,68.78
2023-05-05T06:27:33.052Z,66.29
2023-05-05T06:29:59.339Z,62.81
2023-05-05T06:32:25.698Z,64.06
2023-05-05T06:34:51.996Z,64.20
2023-05-05T06:37:18.296Z,62.98
2023-05-05T06:39:44.632Z,64.63
2023-05-05T06:42:10.953Z,64.45
2023-05-05T06:44:37.249Z,64.38
2023-05-05T06:47:03.991Z,63.21
2023-05-05T06:49:30.360Z,65.26
2023-05-05T06:51:56.645Z,66.74
2023-05-05T06:54:23.026Z,68.74
2023-05-05T06:56:49.311Z,75.90
2023-05-05T06:59:15.608Z,80.87
2023-05-05T07:01:42.163Z,82.36
2023-05-05T07:04:08.517Z,86.46
2023-05-05T07:06:34.837Z,85.47
2023-05-05T07:09:01.141Z,85.92
2023-05-05T07:11:27.491Z,84.21
2023-05-05T07:13:53.777Z,83.77
2023-05-05T07:16:20.071Z,83.84
2023-05-05T07:18:46.383Z,85.98
2023-05-05T07:21:12.662Z,85.25
2023-05-05T07:23:39.001Z,85.48
2023-05-05T07:26:05.385Z,83.58
2023-05-05T07:28:31.680Z,82.54
2023-05-05T07:30:58.004Z,83.08
2023-05-05T07:33:24.302Z,83.16
2023-05-05T07:35:50.675Z,83.23
2023-05-05T07:38:16.978Z,82.84
2023-05-05T07:40:43.280Z,79.17
2023-05-05T07:43:09.595Z,78.02
2023-05-05T07:45:35.920Z,77.46
2023-05-05T07:48:02.318Z,77.41
2023-05-05T07:50:28.643Z,76.31
2023-05-05T07:53:05.765Z,76.93
2023-05-05T07:55:36.836Z,75.09
2023-05-05T07:58:03.175Z,73.92
2023-05-05T08:00:29.753Z,72.30
2023-05-05T08:02:56.179Z,75.94
2023-05-05T08:05:22.592Z,76.68
2023-05-05T08:07:48.931Z,76.55
2023-05-05T08:10:15.264Z,74.62
2023-05-05T08:12:41.591Z,74.11
2023-05-05T08:15:08.632Z,73.28
2023-05-05T08:17:49.386Z,70.10
2023-05-05T08:20:16.701Z,70.86
2023-05-05T08:22:43.088Z,71.26
2023-05-05T08:25:10.140Z,71.08
2023-05-05T08:27:38.204Z,70.63
2023-05-05T08:30:05.432Z,69.46
2023-05-05T08:32:31.981Z,71.50
2023-05-05T08:34:58.314Z,72.31
2023-05-05T08:37:24.704Z,71.06
2023-05-05T08:39:51.038Z,71.11
2023-05-05T08:42:25.778Z,70.34
2023-05-05T08:44:59.598Z,68.66
2023-05-05T08:47:26.004Z,67.87
2023-05-05T08:49:54.478Z,65.53
2023-05-05T08:52:23.747Z,65.65
2023-05-05T08:54:54.723Z,65.49
2023-05-05T08:57:28.268Z,64.04
2023-05-05T08:59:56.766Z,63.76
2023-05-05T09:02:24.152Z,62.25
2023-05-05T09:04:52.203Z,63.63
2023-05-05T09:07:18.720Z,64.01
2023-05-05T09:09:45.942Z,62.59
2023-05-05T09:12:12.316Z,60.39
2023-05-05T09:14:38.627Z,60.20
2023-05-05T09:17:04.980Z,59.20
2023-05-05T09:19:31.328Z,60.54
2023-05-05T09:21:57.644Z,59.90
2023-05-05T09:24:23.980Z,60.18
2023-05-05T09:26:51.532Z,60.76
2023-05-05T09:29:19.282Z,60.83
2023-05-05T09:32:03.535Z,60.90
2023-05-05T09:34:29.909Z,60.54
2023-05-05T09:36:56.228Z,59.29
2023-05-05T09:39:22.586Z,56.22
2023-05-05T09:41:48.919Z,56.82
2023-05-05T09:44:15.384Z,58.38
2023-05-05T09:46:52.211Z,60.48
2023-05-05T09:49:21.328Z,61.02
2023-05-05T09:51:48.912Z,61.72
2023-05-05T09:54:28.076Z,61.84
2023-05-05T09:56:56.225Z,60.71
2023-05-05T09:59:23.537Z,61.68
2023-05-05T10:01:51.221Z,60.22
2023-05-05T10:04:28.871Z,62.56
2023-05-05T10:06:56.626Z,62.27
2023-05-05T10:09:24.145Z,63.78
2023-05-05T10:11:51.482Z,64.65
2023-05-05T10:14:18.729Z,63.38
2023-05-05T10:16:49.953Z,62.22
2023-05-05T10:19:21.079Z,63.79
2023-05-05T10:21:50.814Z,61.39
2023-05-05T10:24:35.756Z,61.44
2023-05-05T10:27:05.027Z,59.49
2023-05-05T10:29:48.046Z,61.79
2023-05-05T10:32:51.543Z,59.95
2023-05-05T10:35:16.519Z,60.90
2023-05-05T10:37:44.732Z,60.28
2023-05-05T10:40:13.276Z,59.16
2023-05-05T10:42:39.655Z,61.32
2023-05-05T10:45:06.970Z,59.39
2023-05-05T10:47:34.440Z,59.45
2023-05-05T10:50:26.728Z,60.36
2023-05-05T10:53:28.508Z,61.04
2023-05-05T10:56:22.447Z,57.79
2023-05-05T10:58:59.276Z,59.78
2023-05-05T11:01:34.976Z,58.46
2023-05-05T11:04:15.986Z,60.18
2023-05-05T11:07:08.773Z,59.10
2023-05-05T11:10:00.691Z,58.97
2023-05-05T11:12:29.475Z,60.20
2023-05-05T11:15:23.968Z,59.78
2023-05-05T11:17:50.515Z,58.45
2023-05-05T11:20:16.952Z,56.20
2023-05-05T11:23:01.852Z,55.47
2023-05-05T11:25:34.363Z,53.52
2023-05-05T11:28:08.825Z,52.38
2023-05-05T11:30:56.035Z,56.75
2023-05-05T11:33:32.973Z,59.76
2023-05-05T11:36:06.791Z,61.42
2023-05-05T11:38:48.640Z,58.68
2023-05-05T11:41:30.228Z,60.16
2023-05-05T11:44:09.999Z,57.92
2023-05-05T11:46:36.708Z,59.57
2023-05-05T11:49:03.162Z,56.84
2023-05-05T11:51:30.118Z,56.63
2023-05-05T11:53:58.456Z,57.00
2023-05-05T11:56:25.416Z,54.69
2023-05-05T11:59:10.484Z,56.16
2023-05-05T12:01:43.015Z,54.31
2023-05-05T12:04:13.870Z,55.03
2023-05-05T12:06:40.805Z,56.68
2023-05-05T12:09:20.841Z,55.44
2023-05-05T12:11:58.685Z,55.97
2023-05-05T12:14:25.728Z,56.34
2023-05-05T12:16:58.656Z,52.33
2023-05-05T12:19:25.050Z,52.69
2023-05-05T12:21:51.365Z,48.64
2023-05-05T12:24:17.750Z,50.06
2023-05-05T12:26:44.151Z,50.47
2023-05-05T12:29:10.484Z,50.24
2023-05-05T12:31:40.923Z,50.55
2023-05-05T12:34:09.611Z,50.03
2023-05-05T12:36:37.057Z,48.67
2023-05-05T12:39:04.598Z,48.99
2023-05-05T12:41:31.852Z,49.17
2023-05-05T12:43:59.254Z,47.15
2023-05-05T12:46:26.616Z,46.41
2023-05-05T12:49:00.506Z,47.74
2023-05-05T12:51:27.380Z,49.18
2023-05-05T12:54:05.602Z,48.07
2023-05-05T12:56:41.114Z,47.45
2023-05-05T12:59:12.259Z,47.44
2023-05-05T13:01:58.796Z,47.39
2023-05-05T13:04:26.210Z,45.38
2023-05-05T13:07:13.157Z,46.55
2023-05-05T13:09:39.837Z,46.47
2023-05-05T13:12:06.415Z,47.05
2023-05-05T13:14:32.753Z,48.59
2023-05-05T13:16:59.124Z,49.28
2023-05-05T13:19:25.519Z,46.81
2023-05-05T13:21:52.847Z,48.59
2023-05-05T13:24:28.530Z,48.48
2023-05-05T13:27:01.153Z,49.18
2023-05-05T13:29:31.055Z,50.16
2023-05-05T13:31:58.016Z,50.74
2023-05-05T13:34:24.357Z,50.55
2023-05-05T13:36:50.653Z,50.00
2023-05-05T13:39:17.026Z,49.22
2023-05-05T13:41:43.350Z,49.81
2023-05-05T13:44:09.662Z,51.27
2023-05-05T13:46:35.977Z,50.77
2023-05-05T13:49:02.298Z,52.18
2023-05-05T13:51:28.598Z,52.40
2023-05-05T13:53:54.939Z,51.92
2023-05-05T13:56:21.314Z,51.95
2023-05-05T13:58:47.688Z,54.24
2023-05-05T14:01:14.074Z,54.51
2023-05-05T14:03:40.586Z,54.60
2023-05-05T14:06:07.570Z,54.34
2023-05-05T14:08:33.866Z,57.20
2023-05-05T14:11:00.213Z,56.96
2023-05-05T14:13:26.509Z,59.77
2023-05-05T14:15:52.835Z,61.64
2023-05-05T14:18:19.187Z,61.55
2023-05-05T14:20:45.510Z,60.46
2023-05-05T14:23:11.831Z,60.33
2023-05-05T14:25:38.599Z,60.40
2023-05-05T14:28:04.916Z,59.78
2023-05-05T14:30:31.227Z,60.48
2023-05-05T14:32:57.537Z,60.24
2023-05-05T14:35:23.878Z,60.67
2023-05-05T14:37:50.193Z,61.94
2023-05-05T14:40:16.508Z,63.11
2023-05-05T14:42:42.876Z,63.30
2023-05-05T14:45:09.816Z,64.43
2023-05-05T14:47:36.289Z,66.43
2023-05-05T14:50:02.687Z,70.25
2023-05-05T14:52:28.989Z,75.59
2023-05-05T14:54:55.306Z,76.90
2023-05-05T14:57:21.731Z,81.47
2023-05-05T14:59:48.040Z,79.36
2023-05-05T15:02:14.324Z,78.34
2023-05-05T15:04:40.636Z,81.68
2023-05-05T15:07:06.951Z,83.37
2023-05-05T15:09:33.266Z,85.02
2023-05-05T15:11:59.550Z,88.03
2023-05-05T15:14:25.846Z,88.67
2023-05-05T15:16:52.132Z,89.11
2023-05-05T15:19:18.438Z,89.92
2023-05-05T15:21:44.745Z,88.75
2023-05-05T15:24:11.126Z,91.26
2023-05-05T15:26:37.428Z,91.87
2023-05-05T15:29:03.736Z,91.68
2023-05-05T15:31:30.201Z,91.77
2023-05-05T15:33:56.583Z,91.77
2023-05-05T15:36:22.970Z,91.34
2023-05-05T15:38:49.291Z,90.81
2023-05-05T15:41:15.657Z,91.15
2023-05-05T15:43:41.963Z,91.17
2023-05-05T15:46:08.251Z,90.35
2023-05-05T15:48:34.549Z,90.23
2023-05-05T15:51:00.974Z,90.46
2023-05-05T15:53:27.278Z,91.20
2023-05-05T15:55:53.580Z,91.75
2023-05-05T15:58:19.893Z,91.63
2023-05-05T16:00:46.196Z,91.36
2023-05-05T16:03:12.608Z,91.30
2023-05-05T16:05:38.986Z,88.87
2023-05-05T16:08:05.385Z,89.29
2023-05-05T16:10:31.676Z,92.19
2023-05-05T16:12:58.002Z,95.38
2023-05-05T16:15:24.311Z,94.90
2023-05-05T16:17:50.614Z,95.18
2023-05-05T16:20:17.009Z,90.95
2023-05-05T16:22:43.329Z,91.36
2023-05-05T16:25:10.116Z,91.85
2023-05-05T16:27:36.627Z,92.48
2023-05-05T16:30:03.149Z,91.55
2023-05-05T16:32:29.549Z,91.20
2023-05-05T16:34:55.840Z,90.16
2023-05-05T16:37:22.170Z,90.55
2023-05-05T16:39:48.666Z,90.84
2023-05-05T16:42:15.026Z,91.03
2023-05-05T16:44:41.317Z,91.38
2023-05-05T16:47:07.613Z,91.74
2023-05-05T16:49:33.908Z,92.12
2023-05-05T16:52:00.201Z,91.54
2023-05-05T16:54:26.498Z,92.78
2023-05-05T16:56:52.817Z,93.20
2023-05-05T16:59:19.166Z,95.03
2023-05-05T17:01:45.536Z,91.73
2023-05-05T17:04:11.984Z,91.08
2023-05-05T17:06:38.401Z,90.67
2023-05-05T17:09:04.745Z,90.39
2023-05-05T17:11:31.057Z,89.36
2023-05-05T17:13:57.354Z,88.21
2023-05-05T17:16:23.755Z,88.00
2023-05-05T17:18:50.117Z,88.78
2023-05-05T17:21:16.429Z,90.98
2023-05-05T17:23:42.732Z,94.27
2023-05-05T17:26:09.055Z,94.22
2023-05-05T17:28:35.340Z,92.83
2023-05-05T17:31:01.662Z,91.07
2023-05-05T17:33:27.951Z,89.74
2023-05-05T17:35:54.452Z,88.36
2023-05-05T17:38:20.770Z,89.28
2023-05-05T17:40:47.184Z,90.29
2023-05-05T17:43:13.505Z,90.48
2023-05-05T17:45:39.857Z,91.31
2023-05-05T17:48:06.391Z,93.59
2023-05-05T17:50:32.703Z,95.23
2023-05-05T17:52:59.020Z,97.29
2023-05-05T17:55:25.329Z,98.05
2023-05-05T17:57:51.633Z,98.79
2023-05-05T18:00:18.369Z,99.42
2023-05-05T18:02:44.788Z,98.89
2023-05-05T18:05:11.389Z,98.15
2023-05-05T18:07:37.894Z,98.08
2023-05-05T18:10:06.149Z,97.04
2023-05-05T18:12:32.501Z,97.95
2023-05-05T18:14:58.829Z,99.14
2023-05-05T18:17:25.196Z,99.88
2023-05-05T18:19:51.519Z,100.00
2023-05-05T18:22:17.865Z,100.00
2023-05-05T18:24:46.023Z,100.00
2023-05-05T18:27:12.429Z,100.00
2023-05-05T18:29:38.804Z,100.00
2023-05-05T18:32:06.116Z,100.00
2023-05-05T18:34:32.562Z,100.00
2023-05-05T18:36:58.858Z,100.00
2023-05-05T18:39:25.188Z,100.00
2023-05-05T18:41:51.561Z,100.00
2023-05-05T18:44:18.984Z,100.00
2023-05-05T18:46:45.453Z,100.00
2023-05-05T18:49:11.785Z,100.00
2023-05-05T18:51:38.111Z,100.00
2023-05-05T18:54:04.484Z,100.00
2023-05-05T18:56:30.847Z,100.00
2023-05-05T18:58:57.265Z,100.00
2023-05-05T19:01:23.598Z,100.00
2023-05-05T19:03:50.044Z,100.00
2023-05-05T19:06:17.097Z,100.00
2023-05-05T19:08:44.409Z,100.00
2023-05-05T19:11:10.847Z,100.00
2023-05-05T19:16:09.879Z,100.00
2023-05-05T19:18:36.233Z,100.00
2023-05-05T19:21:02.643Z,100.00
2023-05-05T19:23:29.004Z,100.00
2023-05-05T19:25:55.398Z,100.00
2023-05-05T19:28:21.714Z,100.00
2023-05-05T19:30:48.114Z,100.00
2023-05-05T19:33:17.720Z,100.00
2023-05-05T19:35:44.319Z,100.00
2023-05-05T19:38:10.711Z,100.00
2023-05-05T19:40:38.275Z,100.00
2023-05-05T19:43:04.806Z,100.00
2023-05-05T19:45:31.549Z,100.00
2023-05-05T19:47:58.032Z,100.00
2023-05-05T19:50:24.484Z,100.00
2023-05-05T19:52:50.820Z,100.00
2023-05-05T19:55:18.196Z,100.00
2023-05-05T19:57:44.496Z,100.00
2023-05-05T20:00:11.541Z,100.00
2023-05-05T20:02:38.121Z,100.00
2023-05-05T20:05:04.807Z,100.00
2023-05-05T20:07:31.145Z,100.00
2023-05-05T20:09:58.514Z,100.00
2023-05-05T20:12:24.995Z,100.00
2023-05-05T20:14:51.372Z,100.00
2023-05-05T20:17:17.684Z,100.00
2023-05-05T20:19:44.024Z,100.00
2023-05-05T20:22:10.339Z,100.00
2023-05-05T20:24:36.652Z,100.00
2023-05-05T20:27:03.010Z,100.00
2023-05-05T20:29:29.313Z,100.00
2023-05-05T20:31:55.759Z,100.00
2023-05-05T20:34:22.136Z,100.00
2023-05-05T20:36:48.499Z,100.00
2023-05-05T20:39:15.287Z,100.00
2023-05-05T20:41:41.732Z,100.00
2023-05-05T20:44:08.076Z,100.00
2023-05-05T20:46:34.507Z,100.00
2023-05-05T20:49:00.838Z,100.00
2023-05-05T20:51:27.154Z,100.00
2023-05-05T20:53:53.473Z,100.00
2023-05-05T20:56:19.772Z,100.00
2023-05-05T20:58:46.087Z,100.00
2023-05-05T21:01:12.446Z,100.00
2023-05-05T21:03:38.813Z,100.00
2023-05-05T21:06:05.351Z,100.00
2023-05-05T21:08:31.690Z,100.00
2023-05-05T21:10:57.985Z,100.00
2023-05-05T21:13:24.337Z,100.00
2023-05-05T21:15:50.673Z,100.00
2023-05-05T21:18:16.993Z,100.00
2023-05-05T21:20:43.301Z,100.00
2023-05-05T21:23:09.646Z,100.00
2023-05-05T21:25:36.081Z,100.00
2023-05-05T21:28:02.415Z,100.00
2023-05-05T21:30:28.835Z,100.00
2023-05-05T21:32:55.215Z,100.00
2023-05-05T21:35:21.539Z,100.00
2023-05-05T21:37:48.644Z,100.00
2023-05-05T21:40:15.026Z,100.00
2023-05-05T21:42:42.281Z,100.00
2023-05-05T21:45:10.623Z,100.00
2023-05-05T21:47:37.063Z,100.00
2023-05-05T21:50:03.557Z,100.00
2023-05-05T21:52:29.871Z,100.00
2023-05-05T21:54:56.176Z,100.00
2023-05-05T21:57:22.474Z,100.00
2023-05-05T21:59:48.805Z,100.00
2023-05-05T22:02:15.108Z,100.00
2023-05-05T22:04:41.419Z,100.00
2023-05-05T22:07:07.733Z,100.00
2023-05-05T22:09:34.035Z,100.00
2023-05-05T22:12:00.357Z,100.00
2023-05-05T22:14:26.708Z,100.00
2023-05-05T22:16:53.035Z,100.00
2023-05-05T22:19:19.360Z,100.00
2023-05-05T22:21:45.649Z,100.00
2023-05-05T22:24:11.997Z,100.00
2023-05-05T22:26:38.301Z,100.00
2023-05-05T22:29:04.617Z,100.00
2023-05-05T22:31:31.070Z,100.00
2023-05-05T22:33:57.440Z,100.00
2023-05-05T22:36:23.909Z,100.00
2023-05-05T22:38:50.223Z,100.00
2023-05-05T22:41:16.586Z,100.00
2023-05-05T22:43:42.906Z,100.00
2023-05-05T22:46:09.198Z,100.00
2023-05-05T22:48:35.560Z,100.00
2023-05-05T22:51:01.900Z,100.00
2023-05-05T22:53:28.226Z,100.00
2023-05-05T22:55:54.536Z,100.00
2023-05-05T22:58:20.986Z,100.00
2023-05-05T23:00:47.376Z,100.00
2023-05-05T23:03:13.809Z,100.00
2023-05-05T23:05:40.097Z,100.00
2023-05-05T23:08:06.435Z,100.00
2023-05-05T23:10:32.732Z,100.00
2023-05-05T23:12:59.052Z,100.00
2023-05-05T23:15:25.387Z,100.00
2023-05-05T23:17:51.746Z,100.00
2023-05-05T23:20:18.117Z,100.00
2023-05-05T23:22:44.450Z,100.00
2023-05-05T23:25:11.008Z,100.00
2023-05-05T23:27:38.927Z,100.00
2023-05-05T23:30:06.674Z,100.00
2023-05-05T23:32:33.165Z,100.00
2023-05-05T23:34:59.513Z,100.00
2023-05-05T23:37:25.820Z,100.00
2023-05-05T23:39:52.124Z,100.00
2023-05-05T23:42:18.426Z,100.00
2023-05-05T23:44:44.740Z,100.00
2023-05-05T23:47:11.050Z,100.00
2023-05-05T23:49:37.798Z,100.00
2023-05-05T23:52:04.370Z,100.00
2023-05-05T23:54:30.771Z,100.00
2023-05-05T23:56:57.079Z,100.00
2023-05-05T23:59:23.369Z,100.00
